Time;durP1;ratioP1;P1;durP2;ratioP2;P2;SDS_P1;SDS_P2;PMS_P1;PMS_P2;Temp;Humidity;BMP_temperature;BMP_pressure;BME280_temperature;BME280_humidity;BME280_pressure;Samples;Min_cycle;Max_cycle;Signal;HPM_P1;HPM_P2
2022/06/15 00:00:23;;;;;;;10.15;6.32;;;13.40;99.90;;;;;;5005988;28;20049;-38
2022/06/15 00:02:54;;;;;;;10.57;6.50;;;13.40;99.90;;;;;;5015461;28;20259;-37
2022/06/15 00:05:20;;;;;;;;;;;13.30;99.90;;;;;;4998708;28;20049;-38
2022/06/15 00:07:47;;;;;;;8.32;6.43;;;13.30;99.90;;;;;;5004070;28;19936;-36
2022/06/15 00:10:19;;;;;;;9.15;6.88;;;13.20;99.90;;;;;;5005796;28;20046;-38
2022/06/15 00:12:45;;;;;;;9.38;5.70;;;13.20;99.90;;;;;;5013132;28;20077;-37
2022/06/15 00:15:11;;;;;;;8.45;6.65;;;13.20;99.90;;;;;;5017652;28;20077;-37
2022/06/15 00:17:44;;;;;;;8.50;7.00;;;13.20;99.90;;;;;;5001838;28;20469;-37
2022/06/15 00:20:11;;;;;;;10.38;6.75;;;13.00;99.90;;;;;;5015950;28;20057;-37
2022/06/15 00:22:41;;;;;;;9.73;6.30;;;13.00;99.90;;;;;;5014806;28;20042;-38
2022/06/15 00:25:08;;;;;;;11.85;6.80;;;13.00;99.90;;;;;;5028290;28;20189;-37
2022/06/15 00:27:34;;;;;;;15.07;7.85;;;12.90;99.90;;;;;;5011991;28;20042;-37
2022/06/15 00:30:00;;;;;;;10.40;6.88;;;12.80;99.90;;;;;;4998388;28;20056;-37
2022/06/15 00:32:26;;;;;;;12.15;6.88;;;12.80;99.90;;;;;;5013106;28;20069;-38
2022/06/15 00:34:54;;;;;;;10.75;7.38;;;12.80;99.90;;;;;;5012949;28;20038;-38
2022/06/15 00:37:26;;;;;;;11.68;7.50;;;12.70;99.90;;;;;;4999793;28;20053;-37
2022/06/15 00:39:52;;;;;;;11.13;7.90;;;12.60;99.90;;;;;;5022012;28;20046;-37
2022/06/15 00:42:27;;;;;;;;;;;12.60;99.90;;;;;;5018647;28;20072;-37
2022/06/15 00:44:54;;;;;;;12.82;7.82;;;12.50;99.90;;;;;;5014793;28;20536;-37
2022/06/15 00:47:33;;;;;;;10.32;7.45;;;12.50;99.90;;;;;;5002624;28;20450;-37
2022/06/15 00:50:07;;;;;;;11.27;7.18;;;12.50;99.90;;;;;;5017529;28;20052;-37
2022/06/15 00:52:50;;;;;;;10.50;7.53;;;12.60;99.90;;;;;;5014577;28;20061;-37
2022/06/15 00:55:21;;;;;;;9.82;7.13;;;12.50;99.90;;;;;;5005560;28;20092;-37
2022/06/15 00:57:47;;;;;;;8.48;6.07;;;12.50;99.90;;;;;;4995169;28;20042;-36
2022/06/15 01:00:13;;;;;;;12.00;7.22;;;12.40;99.90;;;;;;5003778;28;20048;-36
2022/06/15 01:02:41;;;;;;;10.73;7.35;;;12.30;99.90;;;;;;5010462;28;20045;-36
2022/06/15 01:05:09;;;;;;;11.77;7.68;;;12.30;99.90;;;;;;5017339;28;20086;-37
2022/06/15 01:08:02;;;;;;;13.70;7.70;;;12.30;99.90;;;;;;4997585;28;20050;-36
2022/06/15 01:11:08;;;;;;;12.18;7.30;;;12.20;99.90;;;;;;5010867;28;20093;-36
2022/06/15 01:14:16;;;;;;;11.32;6.20;;;12.30;99.90;;;;;;5019956;28;20136;-36
2022/06/15 01:17:12;;;;;;;12.20;7.38;;;12.30;99.90;;;;;;4987929;28;20064;-36
2022/06/15 01:20:12;;;;;;;15.07;7.13;;;12.20;99.90;;;;;;5010520;28;20180;-36
2022/06/15 01:23:12;;;;;;;9.80;6.88;;;12.20;99.90;;;;;;5018948;28;20383;-36
2022/06/15 01:26:03;;;;;;;10.57;7.15;;;12.20;99.90;;;;;;5002893;28;20054;-36
2022/06/15 01:28:52;;;;;;;9.82;7.47;;;12.00;99.90;;;;;;4994876;28;20125;-36
2022/06/15 01:31:36;;;;;;;13.07;7.75;;;12.00;99.90;;;;;;5011296;28;20053;-36
2022/06/15 01:34:35;;;;;;;12.02;7.88;;;12.00;99.90;;;;;;5009452;28;20042;-36
2022/06/15 01:37:05;;;;;;;12.75;7.57;;;12.00;99.90;;;;;;5008182;28;20042;-36
2022/06/15 01:39:41;;;;;;;12.65;8.30;;;11.80;99.90;;;;;;5010593;28;20096;-36
2022/06/15 01:42:09;;;;;;;12.07;7.82;;;11.80;99.90;;;;;;5015359;28;20094;-36
2022/06/15 01:44:40;;;;;;;11.70;7.28;;;11.80;99.90;;;;;;5010210;28;20072;-36
2022/06/15 01:47:12;;;;;;;13.00;8.15;;;11.80;99.90;;;;;;5001107;28;20048;-36
2022/06/15 01:49:46;;;;;;;11.80;7.72;;;11.80;99.90;;;;;;5030318;28;20557;-36
2022/06/15 01:52:15;;;;;;;13.32;7.85;;;11.80;99.90;;;;;;5029756;28;20052;-36
2022/06/15 01:54:49;;;;;;;13.38;9.07;;;11.70;99.90;;;;;;5010614;28;20107;-36
2022/06/15 01:57:17;;;;;;;10.07;6.97;;;11.70;99.90;;;;;;4994348;28;20413;-36
2022/06/15 01:59:53;;;;;;;12.52;7.38;;;11.70;99.90;;;;;;5005989;28;20153;-36
2022/06/15 02:02:34;;;;;;;11.73;7.55;;;11.70;99.90;;;;;;5020868;28;20589;-36
2022/06/15 02:04:59;;;;;;;12.90;7.55;;;11.70;99.90;;;;;;5016362;28;20077;-36
2022/06/15 02:07:29;;;;;;;11.25;7.28;;;11.70;99.90;;;;;;4993605;28;20073;-37
2022/06/15 02:10:05;;;;;;;10.73;7.38;;;11.60;99.90;;;;;;5004125;28;20045;-36
2022/06/15 02:12:45;;;;;;;11.65;7.75;;;11.60;99.90;;;;;;5008025;28;20053;-36
2022/06/15 02:15:14;;;;;;;10.25;8.40;;;11.60;99.90;;;;;;5010420;28;20049;-36
2022/06/15 02:17:44;;;;;;;12.65;7.38;;;11.60;99.90;;;;;;4993580;28;20532;-36
2022/06/15 02:20:33;;;;;;;13.80;8.38;;;11.60;99.90;;;;;;5009047;28;20120;-36
2022/06/15 02:23:02;;;;;;;13.30;8.35;;;11.40;99.90;;;;;;5007461;28;20112;-36
2022/06/15 02:25:33;;;;;;;10.98;7.78;;;11.40;99.90;;;;;;5009263;28;20058;-36
2022/06/15 02:28:01;;;;;;;11.32;7.72;;;11.40;99.90;;;;;;4994866;28;20081;-36
2022/06/15 02:30:29;;;;;;;13.50;7.68;;;11.40;99.90;;;;;;5009759;28;20045;-36
2022/06/15 02:32:55;;;;;;;10.90;7.40;;;11.40;99.90;;;;;;5018711;28;20045;-36
2022/06/15 02:35:21;;;;;;;11.32;8.00;;;11.30;99.90;;;;;;5014985;28;20111;-36
2022/06/15 02:37:48;;;;;;;13.25;7.22;;;11.30;99.90;;;;;;4993237;28;20501;-36
2022/06/15 02:40:19;;;;;;;11.38;7.30;;;11.30;99.90;;;;;;4999020;28;20101;-36
2022/06/15 02:42:46;;;;;;;10.82;7.25;;;11.30;99.90;;;;;;5008937;28;20147;-36
2022/06/15 02:45:19;;;;;;;11.55;6.97;;;11.30;99.90;;;;;;5010062;28;20126;-36
2022/06/15 02:47:46;;;;;;;10.00;7.47;;;11.40;99.90;;;;;;4992278;28;20460;-36
2022/06/15 02:50:17;;;;;;;11.63;7.45;;;11.40;99.90;;;;;;5019623;28;20045;-36
2022/06/15 02:52:52;;;;;;;8.23;6.78;;;11.40;99.90;;;;;;5028529;28;20037;-36
2022/06/15 02:55:20;;;;;;;9.80;6.78;;;11.40;99.90;;;;;;5005191;28;20050;-36
2022/06/15 02:58:00;;;;;;;10.38;7.40;;;11.40;99.90;;;;;;4993203;28;20054;-36
2022/06/15 03:00:26;;;;;;;9.35;7.40;;;11.50;99.90;;;;;;5010587;28;20049;-36
2022/06/15 03:02:51;;;;;;;8.93;6.45;;;11.40;99.90;;;;;;5008730;28;20057;-36
2022/06/15 03:05:17;;;;;;;11.93;7.70;;;11.50;99.90;;;;;;5016724;28;20049;-36
2022/06/15 03:07:43;;;;;;;11.38;6.85;;;11.60;99.90;;;;;;5010682;28;20046;-36
2022/06/15 03:10:09;;;;;;;10.05;7.15;;;11.50;99.90;;;;;;5007487;28;20054;-36
2022/06/15 03:12:34;;;;;;;12.85;7.95;;;11.60;99.90;;;;;;5008763;28;20042;-36
2022/06/15 03:15:00;;;;;;;15.48;8.00;;;11.60;99.90;;;;;;5009477;28;20047;-36
2022/06/15 03:17:26;;;;;;;11.07;7.22;;;11.60;99.90;;;;;;5008881;28;20401;-36
2022/06/15 03:19:52;;;;;;;10.18;7.05;;;11.60;99.90;;;;;;5029488;28;20059;-36
2022/06/15 03:22:18;;;;;;;12.85;7.53;;;11.60;99.90;;;;;;5013057;28;20076;-36
2022/06/15 03:24:43;;;;;;;9.68;6.75;;;11.60;99.90;;;;;;5007643;28;20050;-36
2022/06/15 03:27:09;;;;;;;13.10;8.25;;;11.70;99.90;;;;;;4990473;28;20068;-36
2022/06/15 03:29:36;;;;;;;9.93;7.68;;;11.70;99.90;;;;;;4998625;28;20128;-36
2022/06/15 03:32:02;;;;;;;11.63;7.38;;;11.70;99.90;;;;;;5009098;28;20072;-36
2022/06/15 03:34:28;;;;;;;9.32;7.72;;;11.70;99.90;;;;;;5007118;28;20042;-36
2022/06/15 03:36:54;;;;;;;11.90;7.45;;;11.70;99.90;;;;;;4996912;28;20085;-36
2022/06/15 03:39:20;;;;;;;10.00;7.43;;;11.70;99.90;;;;;;5010638;28;20093;-36
2022/06/15 03:41:45;;;;;;;10.20;6.85;;;11.70;99.90;;;;;;5005824;28;20049;-36
2022/06/15 03:44:11;;;;;;;8.35;6.65;;;11.80;99.90;;;;;;5007895;28;20050;-36
2022/06/15 03:46:37;;;;;;;9.77;6.85;;;11.70;99.90;;;;;;4997186;28;20056;-36
2022/06/15 03:49:03;;;;;;;9.60;7.15;;;11.90;99.90;;;;;;5016584;28;20056;-36
2022/06/15 03:51:29;;;;;;;9.20;6.43;;;11.90;99.90;;;;;;5009320;28;20082;-36
2022/06/15 03:53:54;;;;;;;10.95;6.30;;;11.90;99.90;;;;;;5005633;28;20551;-36
2022/06/15 03:56:21;;;;;;;8.88;6.38;;;12.00;99.90;;;;;;4997599;28;20054;-36
2022/06/15 03:58:46;;;;;;;8.55;6.65;;;12.00;99.90;;;;;;5015659;28;20045;-36
2022/06/15 04:01:13;;;;;;;10.25;6.10;;;12.00;99.90;;;;;;5015847;28;20051;-36
2022/06/15 04:03:38;;;;;;;7.40;5.32;;;12.00;99.90;;;;;;5025071;28;20077;-36
2022/06/15 04:06:05;;;;;;;7.68;5.75;;;12.00;99.90;;;;;;5011245;28;20514;-36
2022/06/15 04:08:42;;;;;;;9.40;6.40;;;12.00;99.90;;;;;;5004711;28;20046;-36
2022/06/15 04:11:11;;;;;;;10.10;5.70;;;12.00;99.90;;;;;;5009589;28;20046;-36
2022/06/15 04:13:37;;;;;;;11.23;6.28;;;12.00;99.90;;;;;;5011891;28;20045;-36
2022/06/15 04:16:06;;;;;;;8.77;6.25;;;12.00;99.90;;;;;;5009948;28;20130;-36
2022/06/15 04:18:33;;;;;;;9.65;5.88;;;12.20;99.90;;;;;;4990572;28;20497;-36
2022/06/15 04:20:58;;;;;;;9.52;6.75;;;12.10;99.90;;;;;;5001153;28;20045;-36
2022/06/15 04:23:24;;;;;;;9.23;6.00;;;12.10;99.90;;;;;;5005822;28;20469;-36
2022/06/15 04:25:58;;;;;;;8.85;5.38;;;12.10;99.90;;;;;;5011378;28;20881;-35
2022/06/15 04:28:25;;;;;;;7.47;5.75;;;12.10;99.90;;;;;;4990604;28;20467;-36
2022/06/15 04:30:51;;;;;;;9.45;5.45;;;12.10;99.90;;;;;;5011740;28;20080;-36
2022/06/15 04:33:17;;;;;;;8.32;5.72;;;12.30;99.90;;;;;;5011179;28;20504;-36
2022/06/15 04:35:44;;;;;;;8.80;6.68;;;12.30;99.90;;;;;;5011550;28;20050;-36
2022/06/15 04:38:11;;;;;;;10.07;6.50;;;12.30;99.90;;;;;;4996201;28;20045;-36
2022/06/15 04:40:38;;;;;;;10.55;6.55;;;12.40;99.90;;;;;;5011327;28;20060;-36
2022/06/15 04:43:06;;;;;;;8.90;6.47;;;12.40;99.90;;;;;;5012100;28;20691;-36
2022/06/15 04:45:31;;;;;;;10.82;6.57;;;12.50;99.90;;;;;;5031584;28;20069;-36
2022/06/15 04:47:57;;;;;;;9.38;6.97;;;12.50;99.90;;;;;;5006984;28;20088;-37
2022/06/15 04:50:23;;;;;;;9.07;6.50;;;12.50;99.90;;;;;;5031488;28;20083;-36
2022/06/15 04:52:49;;;;;;;11.70;6.60;;;12.60;99.90;;;;;;5017735;28;20072;-36
2022/06/15 04:55:18;;;;;;;14.55;7.18;;;12.60;99.90;;;;;;5007409;28;20050;-36
2022/06/15 04:57:45;;;;;;;11.23;6.85;;;12.70;99.90;;;;;;4994714;28;20053;-36
2022/06/15 05:00:17;;;;;;;10.13;7.20;;;12.70;99.90;;;;;;5003351;28;20065;-36
2022/06/15 05:02:43;;;;;;;9.15;6.25;;;12.70;99.90;;;;;;5028879;28;20050;-36
2022/06/15 05:05:09;;;;;;;8.82;6.30;;;12.70;99.90;;;;;;5016946;28;20054;-36
2022/06/15 05:07:35;;;;;;;10.13;6.10;;;12.90;99.90;;;;;;5012233;28;20124;-36
2022/06/15 05:10:00;;;;;;;9.65;6.28;;;12.80;99.90;;;;;;5011888;28;20125;-36
2022/06/15 05:12:26;;;;;;;10.98;6.13;;;12.80;99.90;;;;;;5025398;28;20461;-36
2022/06/15 05:14:52;;;;;;;9.40;6.50;;;12.90;99.90;;;;;;5023910;28;20045;-36
2022/06/15 05:17:20;;;;;;;9.20;6.28;;;12.90;99.90;;;;;;4994949;28;20096;-36
2022/06/15 05:19:46;;;;;;;13.27;6.88;;;13.00;99.90;;;;;;5017872;28;20041;-36
2022/06/15 05:22:12;;;;;;;8.88;6.43;;;13.10;99.90;;;;;;5025066;28;20092;-37
2022/06/15 05:24:38;;;;;;;10.98;6.82;;;13.20;99.90;;;;;;5015354;28;20066;-36
2022/06/15 05:27:05;;;;;;;8.85;6.75;;;13.30;99.90;;;;;;4987461;28;20097;-37
2022/06/15 05:29:31;;;;;;;13.13;5.90;;;13.40;99.90;;;;;;4999457;28;20096;-36
2022/06/15 05:31:57;;;;;;;9.98;6.05;;;13.60;99.90;;;;;;5009489;28;20041;-37
2022/06/15 05:34:23;;;;;;;12.50;6.32;;;13.70;99.90;;;;;;5009989;28;20040;-37
2022/06/15 05:36:49;;;;;;;10.35;6.38;;;13.80;99.90;;;;;;4995334;28;20046;-37
2022/06/15 05:39:16;;;;;;;8.77;6.30;;;14.00;99.90;;;;;;5002521;28;20137;-37
2022/06/15 05:41:42;;;;;;;9.02;6.22;;;14.10;99.90;;;;;;5006305;28;20042;-37
2022/06/15 05:46:46;;;;;;;10.00;5.82;;;14.40;99.90;;;;;;5004899;28;20054;-37
2022/06/15 05:49:12;;;;;;;11.30;5.90;;;14.60;99.90;;;;;;4998279;28;20050;-37
2022/06/15 05:51:38;;;;;;;10.68;5.28;;;14.80;99.90;;;;;;5004259;28;20469;-37
2022/06/15 05:54:05;;;;;;;9.90;5.15;;;14.90;99.90;;;;;;5006578;28;20437;-37
2022/06/15 05:56:33;;;;;;;7.63;5.15;;;15.00;99.90;;;;;;4996333;28;20681;-38
2022/06/15 05:58:59;;;;;;;9.07;5.43;;;15.10;99.90;;;;;;5007907;28;20253;-37
2022/06/15 06:01:33;;;;;;;10.48;5.32;;;15.20;99.90;;;;;;5011108;28;20060;-37
2022/06/15 06:03:59;;;;;;;6.88;5.38;;;15.30;99.90;;;;;;5018742;28;20046;-37
2022/06/15 06:06:26;;;;;;;8.95;5.13;;;15.40;99.90;;;;;;4998518;28;20534;-37
2022/06/15 06:08:52;;;;;;;7.45;5.15;;;15.40;99.90;;;;;;4999000;28;20140;-37
2022/06/15 06:11:19;;;;;;;10.00;4.90;;;15.40;99.90;;;;;;5009406;28;20370;-37
2022/06/15 06:13:45;;;;;;;9.73;5.68;;;15.50;99.90;;;;;;5008379;28;20081;-37
2022/06/15 06:16:11;;;;;;;10.50;4.85;;;15.60;99.90;;;;;;5008655;28;20102;-38
2022/06/15 06:18:37;;;;;;;8.80;5.60;;;15.70;99.90;;;;;;5022892;28;20099;-37
2022/06/15 06:21:05;;;;;;;10.02;5.20;;;15.70;99.90;;;;;;5023279;28;20041;-37
2022/06/15 06:23:31;;;;;;;10.20;5.38;;;15.70;99.90;;;;;;5017424;28;20076;-37
2022/06/15 06:25:57;;;;;;;7.90;4.85;;;15.80;99.90;;;;;;5017582;28;20077;-46
2022/06/15 06:28:22;;;;;;;7.55;4.88;;;15.80;99.90;;;;;;5000981;28;20083;-37
2022/06/15 06:30:48;;;;;;;8.35;4.28;;;15.90;99.90;;;;;;5023044;28;20503;-37
2022/06/15 06:33:14;;;;;;;6.93;4.15;;;15.90;99.90;;;;;;5019589;28;20052;-37
2022/06/15 06:35:39;;;;;;;9.75;4.32;;;15.90;99.90;;;;;;5017774;28;20085;-37
2022/06/15 06:38:05;;;;;;;9.32;4.07;;;16.00;99.90;;;;;;4993536;28;20050;-38
2022/06/15 06:40:32;;;;;;;7.05;4.28;;;16.00;99.90;;;;;;5014782;28;20038;-37
2022/06/15 06:42:57;;;;;;;11.43;4.75;;;16.10;99.90;;;;;;5016273;28;20052;-37
2022/06/15 06:45:23;;;;;;;7.22;4.30;;;16.10;99.90;;;;;;5017298;28;20116;-37
2022/06/15 06:47:49;;;;;;;8.23;4.57;;;16.10;99.90;;;;;;4999159;28;20053;-38
2022/06/15 06:50:14;;;;;;;4.72;3.65;;;16.20;99.90;;;;;;5015944;28;20544;-37
2022/06/15 06:52:41;;;;;;;7.97;4.10;;;16.20;99.90;;;;;;5015153;28;20124;-37
2022/06/15 06:55:07;;;;;;;6.68;3.50;;;16.30;99.90;;;;;;5020860;28;20519;-37
2022/06/15 06:57:33;;;;;;;8.45;3.92;;;16.30;99.90;;;;;;5006690;28;20054;-37
2022/06/15 06:59:59;;;;;;;7.13;3.83;;;16.40;99.90;;;;;;5007392;28;20117;-37
2022/06/15 07:02:24;;;;;;;6.95;4.00;;;16.50;99.90;;;;;;5008297;28;20050;-37
2022/06/15 07:04:50;;;;;;;6.60;3.70;;;16.50;99.90;;;;;;5017616;28;20052;-37
2022/06/15 07:07:16;;;;;;;8.80;3.78;;;16.60;99.90;;;;;;5001538;28;20482;-37
2022/06/15 07:09:41;;;;;;;6.85;3.58;;;16.60;99.90;;;;;;5018866;28;20131;-37
2022/06/15 07:12:07;;;;;;;7.50;3.65;;;16.70;99.90;;;;;;4987967;28;20041;-38
2022/06/15 07:14:33;;;;;;;9.20;3.80;;;16.80;99.90;;;;;;4987636;28;20564;-37
2022/06/15 07:17:00;;;;;;;6.63;3.45;;;16.80;99.90;;;;;;4973286;28;20046;-38
2022/06/15 07:19:26;;;;;;;8.25;3.08;;;16.90;99.90;;;;;;4985342;28;20053;-38
2022/06/15 07:21:51;;;;;;;6.93;3.05;;;16.90;99.90;;;;;;4986221;28;20124;-37
2022/06/15 07:24:18;;;;;;;4.25;2.85;;;16.90;99.90;;;;;;4985659;28;20046;-37
2022/06/15 07:26:47;;;;;;;5.93;2.70;;;17.00;99.90;;;;;;4975346;28;20568;-38
2022/06/15 07:29:16;;;;;;;4.65;2.50;;;17.00;99.90;;;;;;4988130;28;20460;-38
2022/06/15 07:31:46;;;;;;;5.90;2.83;;;17.00;99.90;;;;;;4986917;28;20041;-37
2022/06/15 07:34:12;;;;;;;6.13;2.78;;;17.10;99.90;;;;;;5001333;28;20133;-38
2022/06/15 07:36:40;;;;;;;6.35;2.90;;;17.10;99.90;;;;;;4975420;28;20056;-38
2022/06/15 07:39:07;;;;;;;7.15;2.53;;;17.10;99.90;;;;;;4985914;28;20056;-38
2022/06/15 07:41:35;;;;;;;4.90;2.53;;;17.20;99.90;;;;;;4985215;28;20050;-38
2022/06/15 07:44:02;;;;;;;6.90;2.78;;;17.30;99.90;;;;;;4988145;28;20689;-38
2022/06/15 07:46:27;;;;;;;5.40;2.63;;;17.40;99.90;;;;;;4973697;28;20520;-38
2022/06/15 07:51:44;;;;;;;8.25;2.72;;;17.60;99.90;;;;;;4987930;28;20057;-38
2022/06/15 07:54:13;;;;;;;4.53;2.70;;;17.60;99.90;;;;;;4989417;28;20058;-38
2022/06/15 07:56:40;;;;;;;8.52;2.50;;;17.80;99.90;;;;;;4958036;28;20127;-38
2022/06/15 07:59:07;;;;;;;6.07;2.67;;;17.90;99.90;;;;;;4971358;28;20112;-36
2022/06/15 08:01:33;;;;;;;6.25;2.70;;;17.90;99.90;;;;;;4970400;28;20095;-36
2022/06/15 08:03:59;;;;;;;7.43;2.33;;;18.00;99.90;;;;;;4968294;28;20056;-36
2022/06/15 08:06:26;;;;;;;3.85;2.17;;;18.00;99.90;;;;;;4959996;28;20246;-36
2022/06/15 08:08:52;;;;;;;5.07;2.15;;;18.10;99.90;;;;;;4962673;28;20046;-36
2022/06/15 08:11:18;;;;;;;5.63;2.05;;;18.20;99.90;;;;;;4969097;28;20493;-36
2022/06/15 08:13:45;;;;;;;6.78;2.05;;;18.20;99.90;;;;;;4970974;28;20042;-36
2022/06/15 08:16:12;;;;;;;5.53;2.15;;;18.30;99.90;;;;;;4961675;28;20061;-36
2022/06/15 08:18:44;;;;;;;4.38;2.15;;;18.30;99.90;;;;;;4962324;28;20056;-36
2022/06/15 08:21:16;;;;;;;5.32;2.05;;;18.40;99.90;;;;;;4969600;28;20708;-36
2022/06/15 08:23:45;;;;;;;6.50;2.53;;;18.40;99.90;;;;;;4968245;28;20049;-36
2022/06/15 08:26:15;;;;;;;5.53;1.92;;;18.50;99.90;;;;;;4961329;28;20097;-36
2022/06/15 08:28:44;;;;;;;3.63;1.88;;;18.60;99.90;;;;;;4964671;28;20050;-36
2022/06/15 08:31:11;;;;;;;4.68;1.85;;;18.60;99.90;;;;;;4969831;28;20047;-36
2022/06/15 08:33:38;;;;;;;6.40;1.90;;;18.70;99.90;;;;;;4967830;28;20115;-36
2022/06/15 08:36:04;;;;;;;5.50;1.70;;;18.80;99.90;;;;;;4969490;28;20064;-36
2022/06/15 08:38:31;;;;;;;7.57;1.80;;;18.80;99.90;;;;;;4954267;28;20088;-36
2022/06/15 08:41:07;;;;;;;3.83;1.70;;;18.80;99.90;;;;;;4968207;28;20123;-36
2022/06/15 08:43:51;;;;;;;4.15;1.67;;;18.80;99.90;;;;;;4968056;28;20054;-36
2022/06/15 08:46:23;;;;;;;5.18;1.80;;;18.90;99.90;;;;;;4958630;28;20591;-36
2022/06/15 08:49:27;;;;;;;5.35;1.85;;;18.90;99.90;;;;;;4965977;28;20068;-36
2022/06/15 08:52:03;;;;;;;4.93;2.35;;;18.90;99.90;;;;;;4967399;28;20172;-36
2022/06/15 08:54:43;;;;;;;7.38;2.60;;;19.00;99.90;;;;;;4968632;28;20064;-36
2022/06/15 08:57:24;;;;;;;5.95;2.90;;;18.90;99.90;;;;;;4950377;28;21844;-36
2022/06/15 08:59:59;;;;;;;7.20;2.30;;;19.00;99.90;;;;;;4969232;28;20054;-36
2022/06/15 09:02:54;;;;;;;3.83;2.20;;;19.00;99.90;;;;;;4966805;28;20050;-36
2022/06/15 09:05:28;;;;;;;6.45;2.30;;;19.00;99.90;;;;;;4960753;28;20084;-36
2022/06/15 09:08:08;;;;;;;9.20;2.97;;;19.00;99.90;;;;;;4950265;28;20050;-37
2022/06/15 09:10:44;;;;;;;5.13;2.40;;;19.00;99.90;;;;;;4967717;28;20061;-36
2022/06/15 09:13:32;;;;;;;4.63;2.30;;;19.00;99.90;;;;;;4967486;28;20710;-36
2022/06/15 09:16:07;;;;;;;6.55;2.40;;;19.00;99.90;;;;;;4968900;28;20050;-36
2022/06/15 09:18:44;;;;;;;6.40;2.38;;;19.00;99.90;;;;;;4953244;28;20046;-36
2022/06/15 09:21:25;;;;;;;7.20;2.20;;;19.00;99.90;;;;;;4963226;28;20124;-36
2022/06/15 09:24:03;;;;;;;4.25;2.40;;;19.00;99.90;;;;;;4970362;28;20168;-36
2022/06/15 09:27:08;;;;;;;4.47;2.13;;;19.00;99.90;;;;;;4955230;28;20049;-36
2022/06/15 09:29:45;;;;;;;5.60;2.80;;;19.00;99.90;;;;;;4924426;28;20058;-36
2022/06/15 09:32:20;;;;;;;5.22;2.50;;;19.00;99.90;;;;;;4964750;28;20050;-36
2022/06/15 09:34:59;;;;;;;5.43;2.60;;;19.00;99.90;;;;;;4967542;28;20058;-36
2022/06/15 09:37:28;;;;;;;6.60;3.20;;;19.00;99.90;;;;;;4952631;28;20038;-37
2022/06/15 09:39:54;;;;;;;6.90;2.65;;;19.00;99.90;;;;;;4966754;28;20093;-36
2022/06/15 09:42:38;;;;;;;7.63;2.35;;;19.00;99.90;;;;;;4966385;28;20136;-36
2022/06/15 09:45:16;;;;;;;6.55;2.85;;;19.10;99.90;;;;;;4966034;28;20571;-36
2022/06/15 09:48:01;;;;;;;4.07;2.10;;;19.10;99.90;;;;;;4951112;28;20052;-41
2022/06/15 09:50:43;;;;;;;5.05;2.38;;;19.10;99.90;;;;;;4966299;28;20050;-36
2022/06/15 09:53:27;;;;;;;4.28;2.00;;;19.20;99.90;;;;;;4966956;28;20125;-36
2022/06/15 09:55:56;;;;;;;4.80;2.45;;;19.20;99.90;;;;;;4967283;28;20050;-36
2022/06/15 09:58:31;;;;;;;6.28;2.40;;;19.30;99.90;;;;;;4950994;28;20892;-36
2022/06/15 10:00:56;;;;;;;6.43;1.88;;;19.40;99.90;;;;;;4964684;28;20062;-36
2022/06/15 10:03:29;;;;;;;7.80;2.05;;;19.50;99.90;;;;;;4963874;28;20054;-37
2022/06/15 10:06:03;;;;;;;6.03;2.22;;;19.50;99.90;;;;;;4965539;28;20287;-37
2022/06/15 10:08:29;;;;;;;4.78;2.20;;;19.60;99.90;;;;;;4948679;28;20492;-36
2022/06/15 10:10:58;;;;;;;5.50;2.30;;;19.70;99.90;;;;;;4964457;28;20060;-36
2022/06/15 10:13:28;;;;;;;6.20;1.70;;;19.70;99.90;;;;;;4962937;28;20584;-37
2022/06/15 10:16:01;;;;;;;5.38;1.60;;;19.80;99.90;;;;;;4967403;28;20046;-36
2022/06/15 10:18:46;;;;;;;2.75;1.35;;;19.80;99.90;;;;;;4949881;28;20111;-36
2022/06/15 10:21:14;;;;;;;8.30;2.00;;;19.90;99.90;;;;;;4967669;28;21488;-36
2022/06/15 10:24:02;;;;;;;5.70;2.00;;;19.90;99.90;;;;;;4962521;28;20052;-35
2022/06/15 10:26:31;;;;;;;6.05;1.75;;;19.90;99.90;;;;;;4952893;28;20054;-35
2022/06/15 10:28:59;;;;;;;6.82;1.75;;;20.00;99.90;;;;;;4964757;28;20050;-35
2022/06/15 10:31:33;;;;;;;6.50;2.28;;;20.00;99.90;;;;;;4963403;28;20050;-36
2022/06/15 10:34:28;;;;;;;6.28;2.28;;;20.10;99.90;;;;;;4967750;28;20061;-35
2022/06/15 10:36:56;;;;;;;6.97;2.75;;;20.20;99.90;;;;;;4949105;28;20057;-35
2022/06/15 10:39:27;;;;;;;9.52;3.10;;;20.10;99.90;;;;;;4967028;28;20424;-35
2022/06/15 10:42:05;;;;;;;8.52;3.00;;;20.20;99.90;;;;;;4964287;28;21300;-35
2022/06/15 10:44:35;;;;;;;5.85;2.58;;;20.20;99.90;;;;;;4960976;28;20149;-36
2022/06/15 10:47:04;;;;;;;8.10;2.87;;;20.30;99.90;;;;;;4948262;28;20652;-36
2022/06/15 10:49:40;;;;;;;4.15;2.45;;;20.40;99.90;;;;;;4963396;28;20293;-36
2022/06/15 10:52:43;;;;;;;8.52;3.00;;;20.40;99.90;;;;;;4964487;28;20049;-35
2022/06/15 11:04:13;;;;;;;7.07;2.72;;;20.50;99.90;;;;;;4951653;28;20056;-35
2022/06/15 11:06:51;;;;;;;4.72;2.53;;;20.60;99.90;;;;;;4947349;28;20266;-35
2022/06/15 11:09:26;;;;;;;4.93;2.45;;;20.60;99.90;;;;;;4960101;28;20050;-35
2022/06/15 11:11:54;;;;;;;4.43;2.90;;;20.60;99.90;;;;;;4962768;28;20089;-35
2022/06/15 11:14:26;;;;;;;6.68;2.90;;;20.70;99.90;;;;;;4961912;28;20061;-36
2022/06/15 11:19:50;;;;;;;8.38;2.45;;;20.70;99.90;;;;;;4962155;28;20107;-35
2022/06/15 11:22:18;;;;;;;5.05;2.30;;;20.70;99.90;;;;;;4966703;28;20185;-35
2022/06/15 11:24:55;;;;;;;5.60;2.20;;;20.70;99.90;;;;;;4964862;28;20140;-36
2022/06/15 11:27:28;;;;;;;5.63;2.17;;;20.70;99.90;;;;;;4952877;28;20659;-35
2022/06/15 11:30:25;;;;;;;5.53;2.00;;;20.70;99.90;;;;;;4967697;28;20501;-35
2022/06/15 11:33:15;;;;;;;5.70;2.60;;;20.70;99.90;;;;;;4966679;28;20120;-35
2022/06/15 11:35:56;;;;;;;3.93;1.97;;;20.60;99.90;;;;;;4968981;28;20046;-36
2022/06/15 11:38:25;;;;;;;3.95;2.00;;;20.70;99.90;;;;;;4952741;28;20054;-35
2022/06/15 11:40:59;;;;;;;7.68;2.15;;;20.80;99.90;;;;;;4968619;28;20548;-36
2022/06/15 11:43:31;;;;;;;5.40;2.35;;;20.80;99.90;;;;;;4965588;28;20061;-35
2022/06/15 11:46:31;;;;;;;6.18;2.38;;;20.80;99.90;;;;;;4965942;28;20061;-36
2022/06/15 11:49:23;;;;;;;4.07;2.20;;;20.90;99.90;;;;;;4965313;28;20065;-35
2022/06/15 11:51:53;;;;;;;4.22;2.10;;;21.00;99.90;;;;;;4960530;28;20070;-36
2022/06/15 11:54:30;;;;;;;3.27;1.83;;;21.10;99.90;;;;;;4967877;28;20076;-35
2022/06/15 11:57:03;;;;;;;3.85;2.13;;;21.10;99.90;;;;;;4950312;28;20663;-36
2022/06/15 11:59:47;;;;;;;3.63;2.25;;;21.00;99.90;;;;;;4965108;28;20065;-36
2022/06/15 12:02:13;;;;;;;4.03;2.28;;;21.10;99.90;;;;;;4966756;28;20057;-36
2022/06/15 12:04:52;;;;;;;4.93;2.30;;;21.10;99.90;;;;;;4967544;28;20053;-36
2022/06/15 12:07:27;;;;;;;5.72;1.90;;;21.20;99.90;;;;;;4951996;28;20909;-36
2022/06/15 12:10:00;;;;;;;4.38;2.05;;;21.30;99.90;;;;;;4964017;28;20100;-36
2022/06/15 12:12:52;;;;;;;5.07;2.25;;;21.30;99.90;;;;;;4968432;28;20068;-36
2022/06/15 12:15:24;;;;;;;3.05;1.92;;;21.30;99.90;;;;;;4968015;28;20054;-35
2022/06/15 12:18:01;;;;;;;4.80;2.00;;;21.40;99.90;;;;;;4951927;28;20054;-36
2022/06/15 12:20:39;;;;;;;5.60;2.38;;;21.50;99.90;;;;;;4968099;28;20165;-36
2022/06/15 12:23:14;;;;;;;5.82;2.60;;;21.50;99.90;;;;;;4966642;28;20053;-36
2022/06/15 12:26:12;;;;;;;4.43;1.85;;;21.50;99.90;;;;;;4969257;28;20053;-36
2022/06/15 12:28:55;;;;;;;4.95;2.08;;;21.60;99.90;;;;;;4963387;28;20140;-36
2022/06/15 12:31:33;;;;;;;4.35;1.70;;;21.60;99.90;;;;;;4968069;28;20085;-36
2022/06/15 12:34:15;;;;;;;5.40;2.20;;;21.70;99.90;;;;;;4969804;28;20054;-36
2022/06/15 12:36:59;;;;;;;5.00;2.05;;;21.80;99.90;;;;;;4953917;28;20438;-36
2022/06/15 12:39:48;;;;;;;3.80;1.80;;;21.90;99.90;;;;;;4967514;28;20069;-35
2022/06/15 12:42:17;;;;;;;3.83;2.28;;;21.90;99.90;;;;;;4969446;28;20073;-35
2022/06/15 12:45:05;;;;;;;4.35;1.80;;;21.90;99.90;;;;;;4968720;28;20058;-36
2022/06/15 12:47:33;;;;;;;3.15;1.70;;;22.10;99.90;;;;;;4955483;28;20038;-35
2022/06/15 12:50:05;;;;;;;5.15;1.95;;;22.10;99.90;;;;;;4971269;28;20061;-35
2022/06/15 12:52:48;;;;;;;4.13;1.52;;;22.10;99.90;;;;;;4968766;28;20065;-36
2022/06/15 12:55:17;;;;;;;5.45;1.80;;;22.20;99.90;;;;;;4968349;28;20092;-36
2022/06/15 12:58:15;;;;;;;3.13;1.67;;;22.30;99.90;;;;;;4951547;28;21621;-36
2022/06/15 13:00:47;;;;;;;4.53;1.83;;;22.40;99.90;;;;;;4967545;28;20057;-36
2022/06/15 13:03:37;;;;;;;2.33;1.58;;;22.40;99.90;;;;;;4970084;28;20115;-36
2022/06/15 13:06:22;;;;;;;3.40;1.58;;;22.40;99.90;;;;;;4968107;28;20057;-36
2022/06/15 13:09:01;;;;;;;2.95;1.50;;;22.40;99.90;;;;;;4964227;28;20588;-36
2022/06/15 13:11:28;;;;;;;4.15;1.92;;;22.40;99.90;;;;;;4967707;28;20057;-36
2022/06/15 13:13:54;;;;;;;3.85;1.63;;;22.40;99.90;;;;;;4965518;28;20065;-36
2022/06/15 13:16:35;;;;;;;4.43;1.52;;;22.60;99.90;;;;;;4958885;28;20042;-36
2022/06/15 13:19:03;;;;;;;5.22;1.48;;;22.60;99.90;;;;;;4968809;28;20164;-36
2022/06/15 13:21:50;;;;;;;3.58;1.40;;;22.60;99.90;;;;;;4967130;28;20057;-36
2022/06/15 13:24:16;;;;;;;3.15;1.60;;;22.70;99.90;;;;;;4967510;28;20229;-36